createdAt,value
2023-04-04T00:00:43.560Z,4.48
2023-04-04T00:03:10.894Z,4.45
2023-04-04T00:05:38.164Z,4.43
2023-04-04T00:08:04.998Z,4.45
2023-04-04T00:10:31.711Z,4.43
2023-04-04T00:12:59.244Z,4.41
2023-04-04T00:15:25.948Z,4.40
2023-04-04T00:17:52.577Z,4.39
2023-04-04T00:20:19.234Z,4.38
2023-04-04T00:22:46.142Z,4.39
2023-04-04T00:25:12.853Z,4.41
2023-04-04T00:27:39.559Z,4.38
2023-04-04T00:30:07.290Z,4.39
2023-04-04T00:32:34.042Z,4.39
2023-04-04T00:35:00.694Z,4.38
2023-04-04T00:37:28.187Z,4.37
2023-04-04T00:39:54.933Z,4.37
2023-04-04T00:42:21.886Z,4.37
2023-04-04T00:44:48.909Z,4.37
2023-04-04T00:47:15.801Z,4.37
2023-04-04T00:49:42.428Z,4.38
2023-04-04T00:52:09.173Z,4.38
2023-04-04T00:54:36.240Z,4.36
2023-04-04T00:57:04.983Z,4.36
2023-04-04T00:59:33.113Z,4.38
2023-04-04T01:02:00.952Z,4.33
2023-04-04T01:04:29.603Z,4.33
2023-04-04T01:06:56.772Z,4.32
2023-04-04T01:09:23.773Z,4.33
2023-04-04T01:11:51.067Z,4.27
2023-04-04T01:14:17.807Z,4.25
2023-04-04T01:16:46.119Z,4.24
2023-04-04T01:19:21.813Z,4.20
2023-04-04T01:21:49.363Z,4.19
2023-04-04T01:24:18.460Z,4.17
2023-04-04T01:26:47.020Z,4.11
2023-04-04T01:29:13.772Z,4.10
2023-04-04T01:31:51.455Z,4.09
2023-04-04T01:34:32.187Z,4.08
2023-04-04T01:37:12.401Z,4.06
2023-04-04T01:39:45.593Z,4.07
2023-04-04T01:42:13.532Z,4.05
2023-04-04T01:44:40.519Z,4.03
2023-04-04T01:47:08.913Z,4.02
2023-04-04T01:49:35.747Z,3.98
2023-04-04T01:52:03.580Z,3.99
2023-04-04T01:54:30.782Z,3.98
2023-04-04T01:56:58.136Z,3.96
2023-04-04T01:59:25.134Z,3.97
2023-04-04T02:01:51.864Z,3.97
2023-04-04T02:04:18.992Z,3.95
2023-04-04T02:06:45.652Z,3.93
2023-04-04T02:09:13.255Z,3.91
2023-04-04T02:11:39.989Z,3.85
2023-04-04T02:14:06.642Z,3.82
2023-04-04T02:16:34.136Z,3.80
2023-04-04T02:19:00.934Z,3.82
2023-04-04T02:21:28.127Z,3.82
2023-04-04T02:23:54.861Z,3.80
2023-04-04T02:26:21.750Z,3.78
2023-04-04T02:28:48.413Z,3.73
2023-04-04T02:31:15.079Z,3.69
2023-04-04T02:33:41.793Z,3.67
2023-04-04T02:36:08.629Z,3.63
2023-04-04T02:38:35.272Z,3.63
2023-04-04T02:41:01.956Z,3.64
2023-04-04T02:43:28.905Z,3.57
2023-04-04T02:45:55.536Z,3.58
2023-04-04T02:48:22.339Z,3.56
2023-04-04T02:50:51.800Z,3.53
2023-04-04T02:53:18.495Z,3.53
2023-04-04T02:55:45.241Z,3.53
2023-04-04T02:58:12.250Z,3.47
2023-04-04T03:00:39.504Z,3.44
2023-04-04T03:03:07.375Z,3.45
2023-04-04T03:05:34.442Z,3.43
2023-04-04T03:08:01.678Z,3.43
2023-04-04T03:10:32.518Z,3.47
2023-04-04T03:12:59.777Z,3.47
2023-04-04T03:15:26.868Z,3.47
2023-04-04T03:17:54.256Z,3.47
2023-04-04T03:20:22.736Z,3.48
2023-04-04T03:22:49.638Z,3.47
2023-04-04T03:25:16.938Z,3.43
2023-04-04T03:27:43.688Z,3.42
2023-04-04T03:30:14.007Z,3.40
2023-04-04T03:32:40.954Z,3.41
2023-04-04T03:35:08.448Z,3.36
2023-04-04T03:37:35.709Z,3.27
2023-04-04T03:40:02.721Z,3.27
2023-04-04T03:42:33.866Z,3.25
2023-04-04T03:45:01.102Z,3.22
2023-04-04T03:47:28.040Z,3.24
2023-04-04T03:49:56.380Z,3.22
2023-04-04T03:52:23.129Z,3.24
2023-04-04T03:54:49.782Z,3.22
2023-04-04T03:57:16.943Z,3.20
2023-04-04T03:59:43.574Z,3.17
2023-04-04T04:02:10.320Z,3.14
2023-04-04T04:04:37.090Z,3.12
2023-04-04T04:07:04.160Z,3.11
2023-04-04T04:09:30.971Z,3.10
2023-04-04T04:11:57.770Z,3.08
2023-04-04T04:14:24.454Z,3.08
2023-04-04T04:16:51.163Z,3.07
2023-04-04T04:19:18.249Z,3.06
2023-04-04T04:21:45.062Z,3.09
2023-04-04T04:24:11.877Z,3.07
2023-04-04T04:26:39.027Z,3.03
2023-04-04T04:29:06.261Z,3.05
2023-04-04T04:31:33.022Z,3.06
2023-04-04T04:33:59.675Z,3.03
2023-04-04T04:36:26.529Z,3.04
2023-04-04T04:38:53.324Z,3.01
2023-04-04T04:41:20.146Z,3.02
2023-04-04T04:43:46.831Z,3.00
2023-04-04T04:46:15.056Z,3.01
2023-04-04T04:48:41.899Z,3.02
2023-04-04T04:51:08.892Z,3.01
2023-04-04T04:53:36.281Z,2.98
2023-04-04T04:56:02.914Z,2.96
2023-04-04T04:58:33.476Z,2.96
2023-04-04T05:01:00.367Z,2.95
2023-04-04T05:03:28.006Z,2.88
2023-04-04T05:05:54.866Z,2.89
2023-04-04T05:08:22.190Z,2.88
2023-04-04T05:10:50.772Z,2.86
2023-04-04T05:13:17.621Z,2.88
2023-04-04T05:15:46.616Z,2.85
2023-04-04T05:18:13.384Z,2.84
2023-04-04T05:20:40.501Z,2.84
2023-04-04T05:23:07.939Z,2.85
2023-04-04T05:25:34.640Z,2.84
2023-04-04T05:28:01.434Z,2.81
2023-04-04T05:30:28.220Z,2.79
2023-04-04T05:32:55.673Z,2.82
2023-04-04T05:35:22.377Z,2.77
2023-04-04T05:37:49.215Z,2.81
2023-04-04T05:40:16.194Z,2.81
2023-04-04T05:42:42.900Z,2.86
2023-04-04T05:45:10.601Z,2.93
2023-04-04T05:47:37.245Z,3.06
2023-04-04T05:50:04.184Z,3.48
2023-04-04T05:52:30.962Z,4.13
2023-04-04T05:54:57.567Z,4.29
2023-04-04T05:57:24.285Z,4.21
2023-04-04T05:59:51.911Z,4.13
2023-04-04T06:02:18.765Z,4.04
2023-04-04T06:04:45.715Z,4.07
2023-04-04T06:07:12.339Z,4.10
2023-04-04T06:09:39.008Z,4.11
2023-04-04T06:12:05.728Z,4.15
2023-04-04T06:14:32.631Z,4.21
2023-04-04T06:16:59.360Z,4.29
2023-04-04T06:19:26.548Z,4.34
2023-04-04T06:21:53.319Z,4.41
2023-04-04T06:24:20.033Z,4.47
2023-04-04T06:26:46.700Z,4.50
2023-04-04T06:29:14.007Z,4.51
2023-04-04T06:31:40.959Z,4.59
2023-04-04T06:34:07.573Z,4.69
2023-04-04T06:36:34.444Z,4.73
2023-04-04T06:39:01.621Z,4.69
2023-04-04T06:41:28.364Z,4.80
2023-04-04T06:43:54.977Z,4.95
2023-04-04T06:46:21.656Z,4.92
2023-04-04T06:48:48.269Z,5.02
2023-04-04T06:51:14.877Z,5.03
2023-04-04T06:53:41.676Z,5.07
2023-04-04T06:56:09.594Z,5.08
2023-04-04T06:58:36.450Z,5.10
2023-04-04T07:01:03.098Z,5.17
2023-04-04T07:03:32.458Z,5.28
2023-04-04T07:05:59.137Z,5.19
2023-04-04T07:08:25.748Z,5.28
2023-04-04T07:10:52.832Z,5.38
2023-04-04T07:13:19.821Z,5.47
2023-04-04T07:15:52.714Z,5.52
2023-04-04T07:18:19.563Z,5.61
2023-04-04T07:20:46.689Z,5.68
2023-04-04T07:23:13.580Z,5.71
2023-04-04T07:25:40.146Z,5.75
2023-04-04T07:28:12.828Z,5.84
2023-04-04T07:30:40.599Z,5.93
2023-04-04T07:33:07.713Z,5.98
2023-04-04T07:35:35.166Z,6.00
2023-04-04T07:38:01.790Z,6.09
2023-04-04T07:40:28.437Z,6.12
2023-04-04T07:42:55.156Z,6.16
2023-04-04T07:45:25.000Z,6.25
2023-04-04T07:47:51.735Z,6.11
2023-04-04T07:50:19.390Z,5.96
2023-04-04T07:52:55.917Z,5.79
2023-04-04T07:55:25.492Z,5.69
2023-04-04T07:57:52.947Z,5.83
2023-04-04T08:00:22.173Z,5.99
2023-04-04T08:02:54.113Z,6.13
2023-04-04T08:05:21.050Z,6.09
2023-04-04T08:07:47.722Z,6.10
2023-04-04T08:10:17.721Z,6.06
2023-04-04T08:12:48.023Z,6.06
2023-04-04T08:15:14.719Z,6.10
2023-04-04T08:17:43.437Z,6.09
2023-04-04T08:20:10.773Z,6.18
2023-04-04T08:22:37.350Z,6.17
2023-04-04T08:25:04.712Z,6.19
2023-04-04T08:27:34.200Z,6.16
2023-04-04T08:30:00.924Z,6.36
2023-04-04T08:32:27.581Z,6.41
2023-04-04T08:34:54.612Z,6.48
2023-04-04T08:37:22.632Z,6.41
2023-04-04T08:39:50.178Z,6.29
2023-04-04T08:42:20.754Z,6.30
2023-04-04T08:44:53.555Z,6.41
2023-04-04T08:47:21.676Z,6.26
2023-04-04T08:49:49.757Z,6.32
2023-04-04T08:52:22.088Z,6.19
2023-04-04T08:54:51.148Z,6.16
2023-04-04T08:57:17.887Z,6.09
2023-04-04T08:59:44.790Z,6.14
2023-04-04T09:02:12.028Z,6.19
2023-04-04T09:04:39.931Z,6.30
2023-04-04T09:07:07.271Z,6.39
2023-04-04T09:09:34.385Z,6.44
2023-04-04T09:12:02.139Z,6.34
2023-04-04T09:14:30.518Z,6.34
2023-04-04T09:16:57.619Z,6.41
2023-04-04T09:19:26.246Z,6.56
2023-04-04T09:21:53.210Z,6.65
2023-04-04T09:24:19.940Z,6.70
2023-04-04T09:26:47.810Z,6.60
2023-04-04T09:29:14.861Z,6.66
2023-04-04T09:31:46.718Z,6.69
2023-04-04T09:34:15.015Z,6.64
2023-04-04T09:36:45.142Z,6.66
2023-04-04T09:39:12.417Z,6.55
2023-04-04T09:41:40.429Z,6.51
2023-04-04T09:44:08.123Z,6.45
2023-04-04T09:46:37.289Z,6.53
2023-04-04T09:49:04.904Z,6.51
2023-04-04T09:51:38.819Z,6.44
2023-04-04T09:54:10.829Z,6.36
2023-04-04T09:56:39.784Z,6.45
2023-04-04T09:59:10.246Z,6.51
2023-04-04T10:01:38.069Z,6.62
2023-04-04T10:04:06.028Z,6.60
2023-04-04T10:06:33.392Z,6.65
2023-04-04T10:09:00.989Z,6.63
2023-04-04T10:11:33.746Z,6.71
2023-04-04T10:14:02.894Z,6.73
2023-04-04T10:16:34.903Z,6.75
2023-04-04T10:19:04.146Z,6.86
2023-04-04T10:21:31.549Z,6.87
2023-04-04T10:24:03.855Z,7.01
2023-04-04T10:26:30.802Z,7.07
2023-04-04T10:28:58.648Z,7.09
2023-04-04T10:31:26.327Z,7.03
2023-04-04T10:34:20.240Z,6.95
2023-04-04T10:36:51.454Z,6.96
2023-04-04T10:39:20.833Z,6.98
2023-04-04T10:41:50.865Z,7.05
2023-04-04T10:44:31.981Z,7.07
2023-04-04T10:47:04.598Z,7.13
2023-04-04T10:49:31.918Z,7.19
2023-04-04T10:51:58.692Z,7.19
2023-04-04T10:54:27.955Z,7.07
2023-04-04T10:57:00.920Z,7.06
2023-04-04T10:59:28.515Z,7.03
2023-04-04T11:02:00.306Z,7.09
2023-04-04T11:04:35.170Z,7.14
2023-04-04T11:07:10.634Z,7.22
2023-04-04T11:09:52.103Z,7.20
2023-04-04T11:12:34.474Z,7.18
2023-04-04T11:15:01.056Z,7.10
2023-04-04T11:17:49.624Z,7.13
2023-04-04T11:20:21.948Z,7.15
2023-04-04T11:23:15.631Z,7.30
2023-04-04T11:25:49.990Z,7.40
2023-04-04T11:28:42.488Z,7.49
2023-04-04T11:31:21.620Z,7.44
2023-04-04T11:34:04.507Z,7.43
2023-04-04T11:36:40.919Z,7.31
2023-04-04T11:39:16.980Z,7.45
2023-04-04T11:42:11.642Z,7.35
2023-04-04T11:44:51.193Z,7.39
2023-04-04T11:47:24.059Z,7.35
2023-04-04T11:49:52.738Z,7.41
2023-04-04T11:52:19.721Z,7.38
2023-04-04T11:54:47.914Z,7.43
2023-04-04T11:57:16.422Z,7.56
2023-04-04T11:59:45.662Z,7.56
2023-04-04T12:02:14.165Z,7.59
2023-04-04T12:04:43.829Z,7.74
2023-04-04T12:07:16.354Z,7.69
2023-04-04T12:09:43.770Z,7.77
2023-04-04T12:12:17.466Z,7.80
2023-04-04T12:14:44.865Z,7.77
2023-04-04T12:17:12.242Z,7.81
2023-04-04T12:19:40.614Z,7.81
2023-04-04T12:22:09.850Z,7.85
2023-04-04T12:24:37.052Z,7.90
2023-04-04T12:27:04.430Z,7.92
2023-04-04T12:29:39.012Z,7.86
2023-04-04T12:32:06.790Z,8.00
2023-04-04T12:34:36.452Z,8.00
2023-04-04T12:37:04.283Z,8.04
2023-04-04T12:39:31.750Z,8.08
2023-04-04T12:42:00.235Z,8.07
2023-04-04T12:44:32.230Z,8.11
2023-04-04T12:47:02.392Z,8.09
2023-04-04T12:49:30.749Z,8.13
2023-04-04T12:52:00.808Z,8.06
2023-04-04T12:54:40.085Z,8.10
2023-04-04T12:57:08.301Z,8.16
2023-04-04T12:59:36.913Z,8.24
2023-04-04T13:02:13.347Z,8.26
2023-04-04T13:04:41.095Z,8.29
2023-04-04T13:07:21.226Z,8.19
2023-04-04T13:09:58.776Z,8.24
2023-04-04T13:12:26.952Z,8.16
2023-04-04T13:15:07.285Z,8.25
2023-04-04T13:17:44.994Z,8.32
2023-04-04T13:20:12.878Z,8.31
2023-04-04T13:22:41.049Z,8.40
2023-04-04T13:25:09.603Z,8.39
2023-04-04T13:27:39.382Z,8.50
2023-04-04T13:30:09.369Z,8.56
2023-04-04T13:32:37.678Z,8.59
2023-04-04T13:35:04.594Z,8.56
2023-04-04T13:37:31.291Z,8.47
2023-04-04T13:39:57.923Z,8.36
2023-04-04T13:42:30.476Z,8.47
2023-04-04T13:44:57.730Z,8.45
2023-04-04T13:47:27.661Z,8.43
2023-04-04T13:49:57.670Z,8.50
2023-04-04T13:52:24.292Z,8.44
2023-04-04T13:54:51.280Z,8.53
2023-04-04T13:57:18.065Z,8.60
2023-04-04T13:59:44.809Z,8.61
2023-04-04T14:02:11.484Z,8.62
2023-04-04T14:04:38.215Z,8.62
2023-04-04T14:07:05.152Z,8.69
2023-04-04T14:09:31.937Z,8.71
2023-04-04T14:11:58.725Z,8.75
2023-04-04T14:14:25.391Z,8.79
2023-04-04T14:16:52.062Z,8.86
2023-04-04T14:19:18.648Z,8.83
2023-04-04T14:21:45.829Z,8.83
2023-04-04T14:24:12.452Z,8.90
2023-04-04T14:26:39.036Z,8.91
2023-04-04T14:29:08.434Z,8.99
2023-04-04T14:31:35.154Z,9.09
2023-04-04T14:34:03.017Z,9.04
2023-04-04T14:36:30.056Z,9.14
2023-04-04T14:38:56.928Z,9.20
2023-04-04T14:41:23.752Z,9.24
2023-04-04T14:43:50.690Z,9.31
2023-04-04T14:46:19.230Z,9.41
2023-04-04T14:48:46.941Z,9.43
2023-04-04T14:51:14.167Z,9.55
2023-04-04T14:53:41.118Z,9.47
2023-04-04T14:56:07.992Z,9.39
2023-04-04T14:58:37.715Z,9.33
2023-04-04T15:01:05.568Z,9.11
2023-04-04T15:03:32.600Z,9.15
2023-04-04T15:05:59.220Z,9.26
2023-04-04T15:08:25.880Z,9.32
2023-04-04T15:10:52.576Z,9.29
2023-04-04T15:13:21.791Z,9.26
2023-04-04T15:15:48.580Z,9.24
2023-04-04T15:18:16.192Z,9.19
2023-04-04T15:20:43.417Z,9.23
2023-04-04T15:23:10.526Z,9.27
2023-04-04T15:25:37.540Z,9.33
2023-04-04T15:28:04.155Z,9.39
2023-04-04T15:30:33.626Z,9.45
2023-04-04T15:33:00.314Z,9.40
2023-04-04T15:35:27.100Z,9.42
2023-04-04T15:37:53.754Z,9.38
2023-04-04T15:40:20.789Z,9.42
2023-04-04T15:42:48.077Z,9.34
2023-04-04T15:45:16.302Z,9.39
2023-04-04T15:47:43.981Z,9.40
2023-04-04T15:50:11.952Z,9.34
2023-04-04T15:52:39.131Z,9.28
2023-04-04T15:55:11.916Z,9.38
2023-04-04T15:57:39.055Z,9.51
2023-04-04T16:00:06.660Z,9.56
2023-04-04T16:02:33.381Z,9.54
2023-04-04T16:05:00.043Z,9.57
2023-04-04T16:07:26.939Z,9.63
2023-04-04T16:09:53.541Z,9.67
2023-04-04T16:12:20.336Z,9.64
2023-04-04T16:14:46.939Z,9.64
2023-04-04T16:17:13.554Z,9.55
2023-04-04T16:19:40.224Z,9.59
2023-04-04T16:22:06.977Z,9.45
2023-04-04T16:24:33.858Z,9.47
2023-04-04T16:27:01.204Z,9.43
2023-04-04T16:29:31.249Z,9.47
2023-04-04T16:31:58.024Z,9.50
2023-04-04T16:34:30.686Z,9.38
2023-04-04T16:37:26.708Z,9.29
2023-04-04T16:39:53.620Z,9.19
2023-04-04T16:42:20.208Z,9.17
2023-04-04T16:44:50.812Z,9.13
2023-04-04T16:47:17.479Z,9.10
2023-04-04T16:49:44.238Z,9.01
2023-04-04T16:52:11.000Z,8.91
2023-04-04T16:54:42.772Z,8.89
2023-04-04T16:57:09.714Z,8.92
2023-04-04T16:59:37.658Z,8.86
2023-04-04T17:02:08.014Z,8.76
2023-04-04T17:04:35.337Z,8.65
2023-04-04T17:07:02.645Z,8.62
2023-04-04T17:09:30.546Z,8.57
2023-04-04T17:11:57.462Z,8.59
2023-04-04T17:14:27.988Z,8.61
2023-04-04T17:16:56.030Z,8.54
2023-04-04T17:19:22.760Z,8.52
2023-04-04T17:21:50.820Z,8.50
2023-04-04T17:24:19.754Z,8.54
2023-04-04T17:26:48.161Z,8.52
2023-04-04T17:29:14.879Z,8.45
2023-04-04T17:31:41.630Z,8.44
2023-04-04T17:34:08.259Z,8.43
2023-04-04T17:36:35.305Z,8.41
2023-04-04T17:39:01.949Z,8.37
2023-04-04T17:41:28.605Z,8.37
2023-04-04T17:43:55.820Z,8.33
2023-04-04T17:46:22.474Z,8.31
2023-04-04T17:48:49.108Z,8.25
2023-04-04T17:51:15.936Z,8.24
2023-04-04T17:53:42.528Z,8.23
2023-04-04T17:56:09.533Z,8.20
2023-04-04T17:58:36.263Z,8.20
2023-04-04T18:01:03.634Z,8.20
2023-04-04T18:03:30.597Z,8.17
2023-04-04T18:05:57.856Z,8.13
2023-04-04T18:08:24.454Z,8.13
2023-04-04T18:10:51.604Z,8.14
2023-04-04T18:13:18.621Z,8.13
2023-04-04T18:15:45.300Z,8.11
2023-04-04T18:18:11.960Z,8.07
2023-04-04T18:20:38.672Z,8.03
2023-04-04T18:23:06.595Z,8.02
2023-04-04T18:25:36.778Z,8.00
2023-04-04T18:28:03.826Z,8.00
2023-04-04T18:30:31.589Z,7.97
2023-04-04T18:32:58.835Z,7.96
2023-04-04T18:35:25.706Z,7.96
2023-04-04T18:37:52.605Z,7.96
2023-04-04T18:40:19.471Z,7.97
2023-04-04T18:42:46.502Z,7.94
2023-04-04T18:45:13.876Z,7.89
2023-04-04T18:47:41.583Z,7.95
2023-04-04T18:50:09.216Z,7.90
2023-04-04T18:52:37.110Z,7.90
2023-04-04T18:55:08.248Z,7.82
2023-04-04T18:57:35.061Z,7.81
2023-04-04T19:00:02.458Z,7.81
2023-04-04T19:02:29.607Z,7.79
2023-04-04T19:04:56.699Z,7.79
2023-04-04T19:07:28.889Z,7.79
2023-04-04T19:09:56.826Z,7.79
2023-04-04T19:12:23.853Z,7.79
2023-04-04T19:14:50.717Z,7.68
2023-04-04T19:17:18.442Z,7.69
2023-04-04T19:19:45.384Z,7.67
2023-04-04T19:22:12.114Z,7.67
2023-04-04T19:24:42.538Z,7.65
2023-04-04T19:27:09.545Z,7.66
2023-04-04T19:29:37.206Z,7.64
2023-04-04T19:32:18.087Z,7.66
2023-04-04T19:34:46.522Z,7.67
2023-04-04T19:37:18.660Z,7.63
2023-04-04T19:39:46.289Z,7.61
2023-04-04T19:42:13.389Z,7.59
2023-04-04T19:44:41.311Z,7.58
2023-04-04T19:47:10.773Z,7.59
2023-04-04T19:49:48.382Z,7.60
2023-04-04T19:52:24.712Z,7.59
2023-04-04T19:54:51.611Z,7.59
2023-04-04T19:57:22.619Z,7.57
2023-04-04T20:00:03.646Z,7.58
2023-04-04T20:02:30.430Z,7.56
2023-04-04T20:04:57.317Z,7.52
2023-04-04T20:07:25.409Z,7.54
2023-04-04T20:09:52.644Z,7.56
2023-04-04T20:12:24.308Z,7.58
2023-04-04T20:14:51.438Z,7.60
2023-04-04T20:17:18.852Z,7.61
2023-04-04T20:19:45.966Z,7.62
2023-04-04T20:22:13.608Z,7.62
2023-04-04T20:24:42.560Z,7.60
2023-04-04T20:27:10.669Z,7.58
2023-04-04T20:29:37.941Z,7.59
2023-04-04T20:32:08.287Z,7.52
2023-04-04T20:34:42.743Z,7.52
2023-04-04T20:37:26.275Z,7.52
2023-04-04T20:39:58.030Z,7.51
2023-04-04T20:42:30.965Z,7.51
2023-04-04T20:45:02.465Z,7.48
2023-04-04T20:47:43.553Z,7.48
2023-04-04T20:50:16.958Z,7.49
2023-04-04T20:52:45.335Z,7.47
2023-04-04T20:55:12.564Z,7.47
2023-04-04T20:57:39.970Z,7.43
2023-04-04T21:00:29.382Z,7.43
2023-04-04T21:02:57.992Z,7.43
2023-04-04T21:05:36.262Z,7.42
2023-04-04T21:08:08.502Z,7.43
2023-04-04T21:10:37.971Z,7.40
2023-04-04T21:13:06.459Z,7.40
2023-04-04T21:15:39.948Z,7.39
2023-04-04T21:18:10.413Z,7.39
2023-04-04T21:20:46.473Z,7.38
2023-04-04T21:23:26.012Z,7.38
2023-04-04T21:26:03.993Z,7.36
2023-04-04T21:28:47.536Z,7.37
2023-04-04T21:31:23.592Z,7.39
2023-04-04T21:33:56.331Z,7.33
2023-04-04T21:36:29.370Z,7.31
2023-04-04T21:39:01.307Z,7.26
2023-04-04T21:41:34.837Z,7.24
2023-04-04T21:44:03.913Z,7.20
2023-04-04T21:46:35.940Z,7.13
2023-04-04T21:49:03.460Z,7.12
2023-04-04T21:51:30.246Z,7.11
2023-04-04T21:53:59.902Z,7.07
2023-04-04T21:56:32.193Z,7.08
2023-04-04T21:59:00.417Z,7.02
2023-04-04T22:01:30.420Z,6.96
2023-04-04T22:04:16.010Z,6.92
2023-04-04T22:06:42.971Z,6.89
2023-04-04T22:09:10.322Z,6.85
2023-04-04T22:11:48.058Z,6.86
2023-04-04T22:14:31.471Z,6.83
2023-04-04T22:17:00.258Z,6.79
2023-04-04T22:19:27.159Z,6.75
2023-04-04T22:21:54.101Z,6.78
2023-04-04T22:24:21.486Z,6.73
2023-04-04T22:26:50.583Z,6.72
2023-04-04T22:31:57.691Z,6.71
2023-04-04T22:34:56.067Z,6.70
2023-04-04T22:37:22.686Z,6.69
2023-04-04T22:39:52.316Z,6.66
2023-04-04T22:42:19.225Z,6.65
2023-04-04T22:44:49.269Z,6.64
2023-04-04T22:47:15.867Z,6.63
2023-04-04T22:49:48.445Z,6.62
2023-04-04T22:52:15.912Z,6.61
2023-04-04T22:54:43.232Z,6.59
2023-04-04T22:57:09.812Z,6.57
2023-04-04T22:59:38.340Z,6.55
2023-04-04T23:02:05.657Z,6.53
2023-04-04T23:04:32.763Z,6.51
2023-04-04T23:06:59.600Z,6.47
2023-04-04T23:09:26.422Z,6.45
2023-04-04T23:11:53.008Z,6.42
2023-04-04T23:14:22.979Z,6.39
2023-04-04T23:16:52.804Z,6.37
2023-04-04T23:19:19.422Z,6.34
2023-04-04T23:21:46.321Z,6.36
2023-04-04T23:24:13.046Z,6.35
2023-04-04T23:26:39.680Z,6.34
2023-04-04T23:29:07.344Z,6.32
2023-04-04T23:31:34.084Z,6.26
2023-04-04T23:34:00.793Z,6.27
2023-04-04T23:36:27.484Z,6.26
2023-04-04T23:38:54.095Z,6.24
2023-04-04T23:41:21.679Z,6.20
2023-04-04T23:43:48.266Z,6.18
2023-04-04T23:46:15.791Z,6.15
2023-04-04T23:48:42.548Z,6.14
2023-04-04T23:51:11.084Z,6.14
2023-04-04T23:53:38.298Z,6.13
2023-04-04T23:56:05.183Z,6.10
2023-04-04T23:58:31.775Z,6.09
